sensor_id;sensor_type;location;lat;lon;timestamp;P1;durP1;ratioP1;P2;durP2;ratioP2
68178;SDS011;54998;42.656;23.382;2022-11-03T00:01:35;11.90;;;4.10;;
68178;SDS011;54998;42.656;23.382;2022-11-03T00:04:03;7.53;;;3.70;;
68178;SDS011;54998;42.656;23.382;2022-11-03T00:06:29;9.77;;;3.22;;
68178;SDS011;54998;42.656;23.382;2022-11-03T00:08:58;7.22;;;3.17;;
68178;SDS011;54998;42.656;23.382;2022-11-03T00:11:25;9.85;;;4.10;;
68178;SDS011;54998;42.656;23.382;2022-11-03T00:13:50;7.03;;;3.47;;
68178;SDS011;54998;42.656;23.382;2022-11-03T00:16:16;9.05;;;3.80;;
68178;SDS011;54998;42.656;23.382;2022-11-03T00:18:41;8.77;;;2.95;;
68178;SDS011;54998;42.656;23.382;2022-11-03T00:21:11;8.30;;;3.00;;
68178;SDS011;54998;42.656;23.382;2022-11-03T00:23:38;8.15;;;3.25;;
68178;SDS011;54998;42.656;23.382;2022-11-03T00:28:45;8.57;;;3.10;;
68178;SDS011;54998;42.656;23.382;2022-11-03T00:33:48;8.60;;;4.50;;
68178;SDS011;54998;42.656;23.382;2022-11-03T00:36:18;10.07;;;3.90;;
68178;SDS011;54998;42.656;23.382;2022-11-03T00:38:45;9.70;;;3.17;;
68178;SDS011;54998;42.656;23.382;2022-11-03T00:41:12;8.85;;;3.42;;
68178;SDS011;54998;42.656;23.382;2022-11-03T00:43:39;6.45;;;3.10;;
68178;SDS011;54998;42.656;23.382;2022-11-03T00:46:06;6.97;;;2.88;;
68178;SDS011;54998;42.656;23.382;2022-11-03T00:48:32;11.80;;;4.57;;
68178;SDS011;54998;42.656;23.382;2022-11-03T00:51:04;7.30;;;3.03;;
68178;SDS011;54998;42.656;23.382;2022-11-03T00:53:35;6.38;;;2.88;;
68178;SDS011;54998;42.656;23.382;2022-11-03T00:56:02;11.90;;;3.97;;
68178;SDS011;54998;42.656;23.382;2022-11-03T01:01:11;11.75;;;3.45;;
68178;SDS011;54998;42.656;23.382;2022-11-03T01:03:38;11.15;;;3.63;;
68178;SDS011;54998;42.656;23.382;2022-11-03T01:06:05;8.10;;;3.53;;
68178;SDS011;54998;42.656;23.382;2022-11-03T01:08:51;7.53;;;3.33;;
68178;SDS011;54998;42.656;23.382;2022-11-03T01:11:18;7.35;;;3.38;;
68178;SDS011;54998;42.656;23.382;2022-11-03T01:14:04;8.13;;;3.90;;
68178;SDS011;54998;42.656;23.382;2022-11-03T01:16:30;9.45;;;3.45;;
68178;SDS011;54998;42.656;23.382;2022-11-03T01:18:56;10.05;;;3.63;;
68178;SDS011;54998;42.656;23.382;2022-11-03T01:21:22;7.05;;;3.53;;
68178;SDS011;54998;42.656;23.382;2022-11-03T01:23:47;11.85;;;4.20;;
68178;SDS011;54998;42.656;23.382;2022-11-03T01:26:13;8.68;;;3.45;;
68178;SDS011;54998;42.656;23.382;2022-11-03T01:28:40;7.50;;;3.85;;
68178;SDS011;54998;42.656;23.382;2022-11-03T01:31:08;13.55;;;4.00;;
68178;SDS011;54998;42.656;23.382;2022-11-03T01:33:35;6.53;;;3.70;;
68178;SDS011;54998;42.656;23.382;2022-11-03T01:36:01;8.38;;;4.10;;
68178;SDS011;54998;42.656;23.382;2022-11-03T01:38:30;11.60;;;4.32;;
68178;SDS011;54998;42.656;23.382;2022-11-03T01:40:57;10.38;;;4.32;;
68178;SDS011;54998;42.656;23.382;2022-11-03T01:43:22;10.10;;;4.78;;
68178;SDS011;54998;42.656;23.382;2022-11-03T01:45:51;11.55;;;4.60;;
68178;SDS011;54998;42.656;23.382;2022-11-03T01:48:27;12.43;;;5.13;;
68178;SDS011;54998;42.656;23.382;2022-11-03T01:50:54;13.18;;;5.57;;
68178;SDS011;54998;42.656;23.382;2022-11-03T01:53:19;13.80;;;5.65;;
68178;SDS011;54998;42.656;23.382;2022-11-03T01:55:46;12.07;;;5.32;;
68178;SDS011;54998;42.656;23.382;2022-11-03T01:58:24;16.10;;;6.13;;
68178;SDS011;54998;42.656;23.382;2022-11-03T02:00:55;15.23;;;5.90;;
68178;SDS011;54998;42.656;23.382;2022-11-03T02:03:23;11.27;;;6.13;;
68178;SDS011;54998;42.656;23.382;2022-11-03T02:05:50;12.38;;;5.70;;
68178;SDS011;54998;42.656;23.382;2022-11-03T02:08:29;12.25;;;6.50;;
68178;SDS011;54998;42.656;23.382;2022-11-03T02:10:59;17.52;;;6.82;;
68178;SDS011;54998;42.656;23.382;2022-11-03T02:13:45;13.05;;;6.30;;
68178;SDS011;54998;42.656;23.382;2022-11-03T02:16:10;19.58;;;7.63;;
68178;SDS011;54998;42.656;23.382;2022-11-03T02:18:36;15.95;;;6.97;;
68178;SDS011;54998;42.656;23.382;2022-11-03T02:26:30;11.20;;;5.70;;
68178;SDS011;54998;42.656;23.382;2022-11-03T02:28:56;16.33;;;6.70;;
68178;SDS011;54998;42.656;23.382;2022-11-03T02:31:26;9.20;;;4.72;;
68178;SDS011;54998;42.656;23.382;2022-11-03T02:34:07;15.27;;;7.43;;
68178;SDS011;54998;42.656;23.382;2022-11-03T02:36:54;14.70;;;6.68;;
68178;SDS011;54998;42.656;23.382;2022-11-03T02:42:04;10.50;;;5.22;;
68178;SDS011;54998;42.656;23.382;2022-11-03T02:44:33;11.88;;;6.38;;
68178;SDS011;54998;42.656;23.382;2022-11-03T02:47:00;17.05;;;6.63;;
68178;SDS011;54998;42.656;23.382;2022-11-03T02:49:30;16.05;;;6.32;;
68178;SDS011;54998;42.656;23.382;2022-11-03T02:52:03;20.95;;;8.25;;
68178;SDS011;54998;42.656;23.382;2022-11-03T02:54:39;14.50;;;6.85;;
68178;SDS011;54998;42.656;23.382;2022-11-03T02:57:13;18.73;;;7.28;;
68178;SDS011;54998;42.656;23.382;2022-11-03T02:59:56;12.30;;;6.03;;
68178;SDS011;54998;42.656;23.382;2022-11-03T03:02:31;14.88;;;7.00;;
68178;SDS011;54998;42.656;23.382;2022-11-03T03:05:10;14.38;;;6.80;;
68178;SDS011;54998;42.656;23.382;2022-11-03T03:07:38;13.38;;;6.72;;
68178;SDS011;54998;42.656;23.382;2022-11-03T03:10:15;16.10;;;7.72;;
68178;SDS011;54998;42.656;23.382;2022-11-03T03:12:47;14.10;;;6.05;;
68178;SDS011;54998;42.656;23.382;2022-11-03T03:15:16;13.93;;;6.50;;
68178;SDS011;54998;42.656;23.382;2022-11-03T03:21:16;15.30;;;6.95;;
68178;SDS011;54998;42.656;23.382;2022-11-03T03:23:17;13.82;;;6.85;;
68178;SDS011;54998;42.656;23.382;2022-11-03T03:26:08;15.32;;;5.78;;
68178;SDS011;54998;42.656;23.382;2022-11-03T03:28:39;15.98;;;7.28;;
68178;SDS011;54998;42.656;23.382;2022-11-03T03:31:11;13.52;;;6.10;;
68178;SDS011;54998;42.656;23.382;2022-11-03T03:33:38;13.13;;;5.82;;
68178;SDS011;54998;42.656;23.382;2022-11-03T03:36:05;13.25;;;5.72;;
68178;SDS011;54998;42.656;23.382;2022-11-03T03:38:37;13.80;;;7.43;;
68178;SDS011;54998;42.656;23.382;2022-11-03T03:41:07;16.58;;;5.90;;
68178;SDS011;54998;42.656;23.382;2022-11-03T03:43:36;16.05;;;6.45;;
68178;SDS011;54998;42.656;23.382;2022-11-03T03:46:06;13.20;;;6.90;;
68178;SDS011;54998;42.656;23.382;2022-11-03T03:48:34;11.90;;;7.00;;
68178;SDS011;54998;42.656;23.382;2022-11-03T03:51:00;15.13;;;7.13;;
68178;SDS011;54998;42.656;23.382;2022-11-03T03:53:28;16.67;;;7.60;;
68178;SDS011;54998;42.656;23.382;2022-11-03T03:58:19;19.55;;;6.97;;
68178;SDS011;54998;42.656;23.382;2022-11-03T04:00:45;16.70;;;8.32;;
68178;SDS011;54998;42.656;23.382;2022-11-03T04:03:15;16.00;;;8.07;;
68178;SDS011;54998;42.656;23.382;2022-11-03T04:05:43;16.30;;;8.43;;
68178;SDS011;54998;42.656;23.382;2022-11-03T04:08:09;19.80;;;8.63;;
68178;SDS011;54998;42.656;23.382;2022-11-03T04:10:36;17.45;;;8.50;;
68178;SDS011;54998;42.656;23.382;2022-11-03T04:13:01;16.98;;;8.65;;
68178;SDS011;54998;42.656;23.382;2022-11-03T04:15:46;20.58;;;8.50;;
68178;SDS011;54998;42.656;23.382;2022-11-03T04:18:30;15.18;;;7.28;;
68178;SDS011;54998;42.656;23.382;2022-11-03T04:21:14;21.63;;;8.25;;
68178;SDS011;54998;42.656;23.382;2022-11-03T04:23:58;18.42;;;8.35;;
68178;SDS011;54998;42.656;23.382;2022-11-03T04:26:25;16.70;;;9.07;;
68178;SDS011;54998;42.656;23.382;2022-11-03T04:28:51;20.73;;;9.15;;
68178;SDS011;54998;42.656;23.382;2022-11-03T04:33:44;15.77;;;8.60;;
68178;SDS011;54998;42.656;23.382;2022-11-03T04:36:20;15.50;;;8.05;;
68178;SDS011;54998;42.656;23.382;2022-11-03T04:38:50;16.60;;;8.38;;
68178;SDS011;54998;42.656;23.382;2022-11-03T04:43:44;17.38;;;8.85;;
68178;SDS011;54998;42.656;23.382;2022-11-03T04:46:11;18.35;;;8.68;;
68178;SDS011;54998;42.656;23.382;2022-11-03T04:48:39;15.95;;;7.85;;
68178;SDS011;54998;42.656;23.382;2022-11-03T04:51:23;17.13;;;8.73;;
68178;SDS011;54998;42.656;23.382;2022-11-03T04:53:53;22.65;;;9.05;;
68178;SDS011;54998;42.656;23.382;2022-11-03T04:56:21;24.08;;;10.50;;
68178;SDS011;54998;42.656;23.382;2022-11-03T04:58:48;21.38;;;10.35;;
68178;SDS011;54998;42.656;23.382;2022-11-03T05:01:14;22.20;;;9.25;;
68178;SDS011;54998;42.656;23.382;2022-11-03T05:03:44;18.20;;;9.77;;
68178;SDS011;54998;42.656;23.382;2022-11-03T05:06:29;21.58;;;9.88;;
68178;SDS011;54998;42.656;23.382;2022-11-03T05:08:55;21.10;;;9.02;;
68178;SDS011;54998;42.656;23.382;2022-11-03T05:11:31;24.95;;;10.32;;
68178;SDS011;54998;42.656;23.382;2022-11-03T05:14:01;30.02;;;12.23;;
68178;SDS011;54998;42.656;23.382;2022-11-03T05:16:47;21.27;;;10.98;;
68178;SDS011;54998;42.656;23.382;2022-11-03T05:19:28;20.00;;;8.55;;
68178;SDS011;54998;42.656;23.382;2022-11-03T05:22:00;23.90;;;8.32;;
68178;SDS011;54998;42.656;23.382;2022-11-03T05:24:27;17.38;;;8.38;;
68178;SDS011;54998;42.656;23.382;2022-11-03T05:26:54;16.58;;;9.50;;
68178;SDS011;54998;42.656;23.382;2022-11-03T05:29:25;29.98;;;10.85;;
68178;SDS011;54998;42.656;23.382;2022-11-03T05:31:59;26.23;;;10.20;;
68178;SDS011;54998;42.656;23.382;2022-11-03T05:34:35;33.28;;;10.48;;
68178;SDS011;54998;42.656;23.382;2022-11-03T05:39:34;21.58;;;8.20;;
68178;SDS011;54998;42.656;23.382;2022-11-03T05:42:02;23.02;;;9.95;;
68178;SDS011;54998;42.656;23.382;2022-11-03T05:44:44;22.90;;;8.80;;
68178;SDS011;54998;42.656;23.382;2022-11-03T05:47:52;20.40;;;8.85;;
68178;SDS011;54998;42.656;23.382;2022-11-03T05:50:10;20.92;;;10.70;;
68178;SDS011;54998;42.656;23.382;2022-11-03T05:52:43;19.05;;;9.90;;
68178;SDS011;54998;42.656;23.382;2022-11-03T05:55:19;25.00;;;10.25;;
68178;SDS011;54998;42.656;23.382;2022-11-03T05:57:50;25.15;;;10.63;;
68178;SDS011;54998;42.656;23.382;2022-11-03T06:00:30;25.63;;;10.15;;
68178;SDS011;54998;42.656;23.382;2022-11-03T06:02:58;22.92;;;10.45;;
68178;SDS011;54998;42.656;23.382;2022-11-03T06:05:24;27.83;;;11.18;;
68178;SDS011;54998;42.656;23.382;2022-11-03T06:07:52;23.90;;;10.93;;
68178;SDS011;54998;42.656;23.382;2022-11-03T06:10:24;25.40;;;9.45;;
68178;SDS011;54998;42.656;23.382;2022-11-03T06:13:31;20.17;;;9.85;;
68178;SDS011;54998;42.656;23.382;2022-11-03T06:15:56;21.13;;;9.68;;
68178;SDS011;54998;42.656;23.382;2022-11-03T06:18:28;23.45;;;10.45;;
68178;SDS011;54998;42.656;23.382;2022-11-03T06:21:06;22.17;;;9.07;;
68178;SDS011;54998;42.656;23.382;2022-11-03T06:23:36;25.90;;;10.93;;
68178;SDS011;54998;42.656;23.382;2022-11-03T06:26:04;21.65;;;10.93;;
68178;SDS011;54998;42.656;23.382;2022-11-03T06:28:42;22.17;;;10.80;;
68178;SDS011;54998;42.656;23.382;2022-11-03T06:31:26;24.45;;;11.98;;
68178;SDS011;54998;42.656;23.382;2022-11-03T06:33:53;23.10;;;11.13;;
68178;SDS011;54998;42.656;23.382;2022-11-03T06:36:33;23.65;;;12.20;;
68178;SDS011;54998;42.656;23.382;2022-11-03T06:39:02;24.80;;;12.30;;
68178;SDS011;54998;42.656;23.382;2022-11-03T06:44:14;19.85;;;12.00;;
68178;SDS011;54998;42.656;23.382;2022-11-03T06:46:46;21.48;;;11.73;;
68178;SDS011;54998;42.656;23.382;2022-11-03T06:49:23;22.83;;;12.20;;
68178;SDS011;54998;42.656;23.382;2022-11-03T06:51:52;27.05;;;13.18;;
68178;SDS011;54998;42.656;23.382;2022-11-03T06:56:44;19.23;;;11.67;;
68178;SDS011;54998;42.656;23.382;2022-11-03T06:59:09;22.92;;;12.68;;
68178;SDS011;54998;42.656;23.382;2022-11-03T07:01:38;23.10;;;12.60;;
68178;SDS011;54998;42.656;23.382;2022-11-03T07:04:22;27.55;;;13.07;;
68178;SDS011;54998;42.656;23.382;2022-11-03T07:06:54;24.88;;;13.95;;
68178;SDS011;54998;42.656;23.382;2022-11-03T07:09:24;22.98;;;13.15;;
68178;SDS011;54998;42.656;23.382;2022-11-03T07:11:52;19.33;;;12.35;;
68178;SDS011;54998;42.656;23.382;2022-11-03T07:14:22;24.00;;;13.73;;
68178;SDS011;54998;42.656;23.382;2022-11-03T07:16:53;23.83;;;14.05;;
68178;SDS011;54998;42.656;23.382;2022-11-03T07:19:25;22.05;;;13.90;;
68178;SDS011;54998;42.656;23.382;2022-11-03T07:21:55;25.90;;;14.93;;
68178;SDS011;54998;42.656;23.382;2022-11-03T07:26:53;31.23;;;14.38;;
68178;SDS011;54998;42.656;23.382;2022-11-03T07:29:24;29.80;;;15.00;;
68178;SDS011;54998;42.656;23.382;2022-11-03T07:31:53;31.17;;;14.43;;
68178;SDS011;54998;42.656;23.382;2022-11-03T07:34:21;28.13;;;15.73;;
68178;SDS011;54998;42.656;23.382;2022-11-03T07:36:50;30.27;;;15.18;;
68178;SDS011;54998;42.656;23.382;2022-11-03T07:39:17;29.60;;;14.88;;
68178;SDS011;54998;42.656;23.382;2022-11-03T07:41:45;27.42;;;15.55;;
68178;SDS011;54998;42.656;23.382;2022-11-03T07:44:15;27.45;;;16.05;;
68178;SDS011;54998;42.656;23.382;2022-11-03T07:46:46;24.63;;;14.77;;
68178;SDS011;54998;42.656;23.382;2022-11-03T07:49:23;27.42;;;15.98;;
68178;SDS011;54998;42.656;23.382;2022-11-03T07:51:53;27.42;;;15.48;;
68178;SDS011;54998;42.656;23.382;2022-11-03T07:54:21;30.30;;;15.85;;
68178;SDS011;54998;42.656;23.382;2022-11-03T07:56:59;29.83;;;16.33;;
68178;SDS011;54998;42.656;23.382;2022-11-03T07:59:31;28.80;;;15.88;;
68178;SDS011;54998;42.656;23.382;2022-11-03T08:01:59;31.95;;;16.52;;
68178;SDS011;54998;42.656;23.382;2022-11-03T08:04:28;35.53;;;17.67;;
68178;SDS011;54998;42.656;23.382;2022-11-03T08:06:57;33.13;;;18.38;;
68178;SDS011;54998;42.656;23.382;2022-11-03T08:11:48;33.30;;;17.58;;
68178;SDS011;54998;42.656;23.382;2022-11-03T08:14:14;31.02;;;16.35;;
68178;SDS011;54998;42.656;23.382;2022-11-03T08:16:39;30.95;;;16.33;;
68178;SDS011;54998;42.656;23.382;2022-11-03T08:19:05;29.60;;;18.08;;
68178;SDS011;54998;42.656;23.382;2022-11-03T08:23:56;32.22;;;17.52;;
68178;SDS011;54998;42.656;23.382;2022-11-03T08:28:47;31.20;;;17.17;;
68178;SDS011;54998;42.656;23.382;2022-11-03T08:33:37;25.07;;;16.67;;
68178;SDS011;54998;42.656;23.382;2022-11-03T08:36:03;29.58;;;17.15;;
68178;SDS011;54998;42.656;23.382;2022-11-03T08:40:54;28.35;;;15.55;;
68178;SDS011;54998;42.656;23.382;2022-11-03T08:43:22;27.88;;;16.35;;
68178;SDS011;54998;42.656;23.382;2022-11-03T08:45:48;29.45;;;16.70;;
68178;SDS011;54998;42.656;23.382;2022-11-03T08:48:17;26.38;;;15.90;;
68178;SDS011;54998;42.656;23.382;2022-11-03T08:50:52;26.52;;;16.45;;
68178;SDS011;54998;42.656;23.382;2022-11-03T08:53:19;29.33;;;15.85;;
68178;SDS011;54998;42.656;23.382;2022-11-03T08:55:45;29.40;;;15.07;;
68178;SDS011;54998;42.656;23.382;2022-11-03T08:58:11;31.88;;;17.65;;
68178;SDS011;54998;42.656;23.382;2022-11-03T09:03:02;32.20;;;19.25;;
68178;SDS011;54998;42.656;23.382;2022-11-03T09:07:53;31.02;;;17.08;;
68178;SDS011;54998;42.656;23.382;2022-11-03T09:12:44;32.40;;;17.67;;
68178;SDS011;54998;42.656;23.382;2022-11-03T09:15:09;28.75;;;16.80;;
68178;SDS011;54998;42.656;23.382;2022-11-03T09:17:35;29.92;;;17.13;;
68178;SDS011;54998;42.656;23.382;2022-11-03T09:22:26;27.98;;;17.42;;
68178;SDS011;54998;42.656;23.382;2022-11-03T09:27:17;26.53;;;17.30;;
68178;SDS011;54998;42.656;23.382;2022-11-03T09:32:07;31.30;;;17.25;;
68178;SDS011;54998;42.656;23.382;2022-11-03T09:34:33;24.75;;;14.73;;
68178;SDS011;54998;42.656;23.382;2022-11-03T09:39:23;24.92;;;15.32;;
68178;SDS011;54998;42.656;23.382;2022-11-03T09:41:49;25.55;;;16.30;;
68178;SDS011;54998;42.656;23.382;2022-11-03T09:44:15;23.77;;;15.07;;
68178;SDS011;54998;42.656;23.382;2022-11-03T09:46:41;32.20;;;16.92;;
68178;SDS011;54998;42.656;23.382;2022-11-03T09:51:35;26.67;;;15.57;;
68178;SDS011;54998;42.656;23.382;2022-11-03T09:54:01;24.55;;;15.98;;
68178;SDS011;54998;42.656;23.382;2022-11-03T09:56:29;26.52;;;14.90;;
68178;SDS011;54998;42.656;23.382;2022-11-03T09:58:55;24.95;;;14.05;;
68178;SDS011;54998;42.656;23.382;2022-11-03T10:01:21;23.42;;;13.85;;
68178;SDS011;54998;42.656;23.382;2022-11-03T10:03:47;22.30;;;13.05;;
68178;SDS011;54998;42.656;23.382;2022-11-03T10:06:13;25.95;;;14.05;;
68178;SDS011;54998;42.656;23.382;2022-11-03T10:08:40;24.08;;;13.93;;
68178;SDS011;54998;42.656;23.382;2022-11-03T10:11:08;22.63;;;13.23;;
68178;SDS011;54998;42.656;23.382;2022-11-03T10:16:02;23.80;;;13.23;;
68178;SDS011;54998;42.656;23.382;2022-11-03T10:18:32;23.23;;;13.35;;
68178;SDS011;54998;42.656;23.382;2022-11-03T10:21:01;26.35;;;14.90;;
68178;SDS011;54998;42.656;23.382;2022-11-03T10:23:29;22.98;;;13.85;;
68178;SDS011;54998;42.656;23.382;2022-11-03T10:25:58;25.08;;;13.73;;
68178;SDS011;54998;42.656;23.382;2022-11-03T10:28:33;21.38;;;11.98;;
68178;SDS011;54998;42.656;23.382;2022-11-03T10:33:25;21.25;;;11.80;;
68178;SDS011;54998;42.656;23.382;2022-11-03T10:35:56;20.50;;;11.63;;
68178;SDS011;54998;42.656;23.382;2022-11-03T10:38:24;20.80;;;11.07;;
68178;SDS011;54998;42.656;23.382;2022-11-03T10:40:52;17.50;;;10.02;;
68178;SDS011;54998;42.656;23.382;2022-11-03T10:43:18;22.00;;;11.30;;
68178;SDS011;54998;42.656;23.382;2022-11-03T10:45:44;20.75;;;9.50;;
68178;SDS011;54998;42.656;23.382;2022-11-03T10:48:10;18.60;;;9.48;;
68178;SDS011;54998;42.656;23.382;2022-11-03T10:53:03;14.77;;;8.18;;
68178;SDS011;54998;42.656;23.382;2022-11-03T10:55:28;16.55;;;7.47;;
68178;SDS011;54998;42.656;23.382;2022-11-03T11:00:20;15.23;;;6.70;;
68178;SDS011;54998;42.656;23.382;2022-11-03T11:02:46;18.20;;;8.20;;
68178;SDS011;54998;42.656;23.382;2022-11-03T11:05:13;15.60;;;7.15;;
68178;SDS011;54998;42.656;23.382;2022-11-03T11:07:42;15.45;;;5.97;;
68178;SDS011;54998;42.656;23.382;2022-11-03T11:10:13;11.13;;;6.25;;
68178;SDS011;54998;42.656;23.382;2022-11-03T11:15:44;16.00;;;6.22;;
68178;SDS011;54998;42.656;23.382;2022-11-03T11:18:58;13.93;;;6.05;;
68178;SDS011;54998;42.656;23.382;2022-11-03T11:21:00;14.32;;;6.95;;
68178;SDS011;54998;42.656;23.382;2022-11-03T11:28:38;12.68;;;6.60;;
68178;SDS011;54998;42.656;23.382;2022-11-03T11:36:34;13.77;;;7.22;;
68178;SDS011;54998;42.656;23.382;2022-11-03T11:39:02;14.95;;;6.00;;
68178;SDS011;54998;42.656;23.382;2022-11-03T11:47:31;18.80;;;7.80;;
68178;SDS011;54998;42.656;23.382;2022-11-03T11:52:36;14.32;;;6.22;;
68178;SDS011;54998;42.656;23.382;2022-11-03T11:55:12;13.95;;;5.75;;
68178;SDS011;54998;42.656;23.382;2022-11-03T11:57:42;13.90;;;6.10;;
68178;SDS011;54998;42.656;23.382;2022-11-03T12:00:22;15.02;;;5.60;;
68178;SDS011;54998;42.656;23.382;2022-11-03T12:02:50;13.90;;;5.15;;
68178;SDS011;54998;42.656;23.382;2022-11-03T12:05:21;12.65;;;4.68;;
68178;SDS011;54998;42.656;23.382;2022-11-03T12:07:52;13.00;;;5.05;;
68178;SDS011;54998;42.656;23.382;2022-11-03T12:10:22;14.75;;;4.10;;
68178;SDS011;54998;42.656;23.382;2022-11-03T12:12:55;13.75;;;4.75;;
68178;SDS011;54998;42.656;23.382;2022-11-03T12:21:45;13.38;;;4.63;;
68178;SDS011;54998;42.656;23.382;2022-11-03T12:27:17;14.27;;;4.72;;
68178;SDS011;54998;42.656;23.382;2022-11-03T12:29:43;11.85;;;4.18;;
68178;SDS011;54998;42.656;23.382;2022-11-03T12:32:09;11.60;;;4.13;;
68178;SDS011;54998;42.656;23.382;2022-11-03T12:34:34;16.30;;;5.35;;
68178;SDS011;54998;42.656;23.382;2022-11-03T12:36:59;13.52;;;4.78;;
68178;SDS011;54998;42.656;23.382;2022-11-03T12:39:25;16.83;;;5.28;;
68178;SDS011;54998;42.656;23.382;2022-11-03T12:41:50;14.93;;;4.78;;
68178;SDS011;54998;42.656;23.382;2022-11-03T12:44:16;16.67;;;4.95;;
68178;SDS011;54998;42.656;23.382;2022-11-03T12:46:41;13.15;;;4.78;;
68178;SDS011;54998;42.656;23.382;2022-11-03T12:49:06;14.60;;;5.00;;
68178;SDS011;54998;42.656;23.382;2022-11-03T12:51:32;18.42;;;4.93;;
68178;SDS011;54998;42.656;23.382;2022-11-03T12:53:57;12.60;;;4.68;;
68178;SDS011;54998;42.656;23.382;2022-11-03T12:56:23;16.25;;;5.53;;
68178;SDS011;54998;42.656;23.382;2022-11-03T12:58:48;11.63;;;4.15;;
68178;SDS011;54998;42.656;23.382;2022-11-03T13:01:13;13.02;;;4.40;;
68178;SDS011;54998;42.656;23.382;2022-11-03T13:03:39;11.32;;;4.18;;
68178;SDS011;54998;42.656;23.382;2022-11-03T13:06:05;17.38;;;4.32;;
68178;SDS011;54998;42.656;23.382;2022-11-03T13:08:33;10.98;;;5.05;;
68178;SDS011;54998;42.656;23.382;2022-11-03T13:11:00;16.05;;;5.00;;
68178;SDS011;54998;42.656;23.382;2022-11-03T13:13:25;11.90;;;4.15;;
68178;SDS011;54998;42.656;23.382;2022-11-03T13:15:51;13.77;;;4.45;;
68178;SDS011;54998;42.656;23.382;2022-11-03T13:18:18;12.98;;;4.47;;
68178;SDS011;54998;42.656;23.382;2022-11-03T13:20:44;12.43;;;4.03;;
68178;SDS011;54998;42.656;23.382;2022-11-03T13:23:10;11.68;;;4.22;;
68178;SDS011;54998;42.656;23.382;2022-11-03T13:25:36;14.98;;;4.40;;
68178;SDS011;54998;42.656;23.382;2022-11-03T13:28:01;12.98;;;4.07;;
68178;SDS011;54998;42.656;23.382;2022-11-03T13:30:28;10.38;;;4.70;;
68178;SDS011;54998;42.656;23.382;2022-11-03T13:32:54;18.52;;;4.57;;
68178;SDS011;54998;42.656;23.382;2022-11-03T13:35:20;12.27;;;4.57;;
68178;SDS011;54998;42.656;23.382;2022-11-03T13:37:46;14.82;;;4.85;;
68178;SDS011;54998;42.656;23.382;2022-11-03T13:40:11;10.00;;;5.00;;
68178;SDS011;54998;42.656;23.382;2022-11-03T13:42:37;13.07;;;4.93;;
68178;SDS011;54998;42.656;23.382;2022-11-03T13:45:03;12.18;;;4.35;;
68178;SDS011;54998;42.656;23.382;2022-11-03T13:47:29;14.93;;;4.63;;
68178;SDS011;54998;42.656;23.382;2022-11-03T13:49:55;12.80;;;4.60;;
68178;SDS011;54998;42.656;23.382;2022-11-03T13:52:20;15.73;;;4.57;;
68178;SDS011;54998;42.656;23.382;2022-11-03T13:54:48;16.27;;;5.60;;
68178;SDS011;54998;42.656;23.382;2022-11-03T13:57:13;11.95;;;3.88;;
68178;SDS011;54998;42.656;23.382;2022-11-03T13:59:38;15.57;;;5.00;;
68178;SDS011;54998;42.656;23.382;2022-11-03T14:02:04;15.32;;;4.78;;
68178;SDS011;54998;42.656;23.382;2022-11-03T14:04:30;14.45;;;4.90;;
68178;SDS011;54998;42.656;23.382;2022-11-03T14:06:56;14.88;;;4.72;;
68178;SDS011;54998;42.656;23.382;2022-11-03T14:09:22;16.02;;;4.75;;
68178;SDS011;54998;42.656;23.382;2022-11-03T14:11:48;9.13;;;4.35;;
68178;SDS011;54998;42.656;23.382;2022-11-03T14:14:32;12.85;;;4.20;;
68178;SDS011;54998;42.656;23.382;2022-11-03T14:16:57;16.90;;;4.40;;
68178;SDS011;54998;42.656;23.382;2022-11-03T14:19:23;13.05;;;4.43;;
68178;SDS011;54998;42.656;23.382;2022-11-03T14:21:48;19.85;;;5.35;;
68178;SDS011;54998;42.656;23.382;2022-11-03T14:24:14;12.88;;;4.43;;
68178;SDS011;54998;42.656;23.382;2022-11-03T14:26:39;20.38;;;6.00;;
68178;SDS011;54998;42.656;23.382;2022-11-03T14:29:05;17.48;;;5.63;;
68178;SDS011;54998;42.656;23.382;2022-11-03T14:31:30;13.85;;;5.88;;
68178;SDS011;54998;42.656;23.382;2022-11-03T14:33:56;20.92;;;6.13;;
68178;SDS011;54998;42.656;23.382;2022-11-03T14:36:21;22.90;;;6.40;;
68178;SDS011;54998;42.656;23.382;2022-11-03T14:38:47;23.77;;;5.45;;
68178;SDS011;54998;42.656;23.382;2022-11-03T14:41:12;16.00;;;5.32;;
68178;SDS011;54998;42.656;23.382;2022-11-03T14:43:56;18.70;;;4.60;;
68178;SDS011;54998;42.656;23.382;2022-11-03T14:46:22;17.40;;;4.68;;
68178;SDS011;54998;42.656;23.382;2022-11-03T14:48:47;18.02;;;4.72;;
68178;SDS011;54998;42.656;23.382;2022-11-03T14:51:13;15.23;;;4.28;;
68178;SDS011;54998;42.656;23.382;2022-11-03T14:53:38;16.48;;;4.30;;
68178;SDS011;54998;42.656;23.382;2022-11-03T14:56:03;12.75;;;4.00;;
68178;SDS011;54998;42.656;23.382;2022-11-03T14:58:29;11.15;;;3.72;;
68178;SDS011;54998;42.656;23.382;2022-11-03T15:00:54;12.25;;;4.22;;
68178;SDS011;54998;42.656;23.382;2022-11-03T15:03:20;15.45;;;4.53;;
68178;SDS011;54998;42.656;23.382;2022-11-03T15:05:45;12.93;;;4.38;;
68178;SDS011;54998;42.656;23.382;2022-11-03T15:08:11;17.20;;;4.75;;
68178;SDS011;54998;42.656;23.382;2022-11-03T15:10:38;17.67;;;6.40;;
68178;SDS011;54998;42.656;23.382;2022-11-03T15:13:03;14.50;;;5.18;;
68178;SDS011;54998;42.656;23.382;2022-11-03T15:15:29;18.52;;;6.13;;
68178;SDS011;54998;42.656;23.382;2022-11-03T15:17:54;15.25;;;5.90;;
68178;SDS011;54998;42.656;23.382;2022-11-03T15:20:20;16.75;;;6.25;;
68178;SDS011;54998;42.656;23.382;2022-11-03T15:22:45;15.00;;;5.40;;
68178;SDS011;54998;42.656;23.382;2022-11-03T15:25:11;18.80;;;5.47;;
68178;SDS011;54998;42.656;23.382;2022-11-03T15:27:36;18.05;;;6.47;;
68178;SDS011;54998;42.656;23.382;2022-11-03T15:30:03;18.13;;;5.57;;
68178;SDS011;54998;42.656;23.382;2022-11-03T15:32:31;19.50;;;6.72;;
68178;SDS011;54998;42.656;23.382;2022-11-03T15:34:56;18.08;;;6.72;;
68178;SDS011;54998;42.656;23.382;2022-11-03T15:37:22;19.05;;;6.88;;
68178;SDS011;54998;42.656;23.382;2022-11-03T15:39:48;20.45;;;7.60;;
68178;SDS011;54998;42.656;23.382;2022-11-03T15:42:13;20.10;;;7.20;;
68178;SDS011;54998;42.656;23.382;2022-11-03T15:44:38;22.63;;;7.28;;
68178;SDS011;54998;42.656;23.382;2022-11-03T15:47:04;18.50;;;6.40;;
68178;SDS011;54998;42.656;23.382;2022-11-03T15:51:56;18.58;;;5.63;;
68178;SDS011;54998;42.656;23.382;2022-11-03T15:54:21;19.05;;;6.88;;
68178;SDS011;54998;42.656;23.382;2022-11-03T15:56:46;18.05;;;7.15;;
68178;SDS011;54998;42.656;23.382;2022-11-03T15:59:12;22.15;;;6.30;;
68178;SDS011;54998;42.656;23.382;2022-11-03T16:01:37;30.20;;;8.85;;
68178;SDS011;54998;42.656;23.382;2022-11-03T16:04:03;23.67;;;7.13;;
68178;SDS011;54998;42.656;23.382;2022-11-03T16:06:28;21.80;;;6.47;;
68178;SDS011;54998;42.656;23.382;2022-11-03T16:08:53;18.70;;;6.40;;
68178;SDS011;54998;42.656;23.382;2022-11-03T16:11:19;21.00;;;6.38;;
68178;SDS011;54998;42.656;23.382;2022-11-03T16:13:44;25.58;;;6.03;;
68178;SDS011;54998;42.656;23.382;2022-11-03T16:16:10;12.95;;;4.60;;
68178;SDS011;54998;42.656;23.382;2022-11-03T16:18:36;16.90;;;6.50;;
68178;SDS011;54998;42.656;23.382;2022-11-03T16:21:02;14.43;;;5.70;;